Weather observations for the past three days for
Storm Lake
Imperial (Metric)
Date Time (cdt) Wind (mph) Vis. (mi.) Weather Sky Cond. Temperature (ºF) Relative Humidity Wind Chill (°F) Heat Index (°F) Pressure Precipitation (in)
Air Dwpt 6 hour altimeter (in) sea level (mb) 1 hr 3 hr 6 hr
Max. Min.
10 10:55 W 17 G 24 10.00 Fair CLR 62.6 26.6 25% 30.16 0.0
10 10:35 W 17 G 24 10.00 Fair CLR 60.8 26.6 27% 30.16 0.0
10 10:15 W 17 G 24 10.00 Fair CLR 60.8 24.8 25% 30.15 0.0
10 09:55 W 14 G 21 10.00 Fair CLR 59 26.6 29% 30.15 0.0
10 09:35 W 14 10.00 Fair CLR 57.2 24.8 29% 30.16 0.0
10 09:15 W 15 10.00 Fair CLR 55.4 24.8 31% 30.15 0.0
10 08:55 SW 13 10.00 Fair CLR 55.4 24.8 31% 30.15 0.0
10 08:35 SW 12 10.00 Fair CLR 53.6 24.8 33% 30.15 0.0
10 08:15 SW 9 10.00 Fair CLR 50 26.6 40% 47 30.16 0.0
10 07:55 SW 7 10.00 Fair CLR 46.4 26.6 46% 43 30.15 0.0
10 07:35 SW 6 10.00 Fair CLR 46.4 24.8 43% 44 30.15 0.0
10 07:15 W 6 10.00 Fair CLR 44.6 24.8 46% 42 30.14 0.0
10 06:55 W 7 10.00 Fair CLR 41 24.8 53% 37 30.13 0.0
10 06:35 W 7 10.00 Fair CLR 39.2 23 52% 35 30.12 0.0
10 06:15 W 9 10.00 Fair CLR 41 23 49% 36 30.12 0.0
10 05:55 W 8 10.00 Fair CLR 39.2 23 52% 34 30.11 0.0
10 05:35 W 8 10.00 Fair CLR 41 23 49% 36 30.12 0.0
10 05:15 SW 3 10.00 Fair CLR 41 23 49% 30.11 0.0
10 04:55 W 5 10.00 Fair CLR 39.2 23 52% 36 30.11 0.0
10 04:35 Calm 10.00 Fair CLR 44.6 23 43% 30.11 0.0
10 04:15 N 3 10.00 Fair CLR 46.4 23 40% 30.11 0.0
10 03:55 NE 3 10.00 Fair CLR 46.4 23 40% 30.1 0.0
10 03:35 N 6 10.00 Fair CLR 46.4 23 40% 44 30.09 0.0
10 03:15 NE 3 10.00 Fair CLR 44.6 21.2 39% 30.09 0.0
10 02:55 N 6 10.00 Fair CLR 46.4 21.2 37% 44 30.08 0.0
10 02:35 N 5 10.00 Fair CLR 46.4 21.2 37% 45 30.08 0.0
10 02:15 N 7 10.00 Fair CLR 44.6 21.2 39% 41 30.07 0.0
10 01:55 N 7 10.00 Fair CLR 46.4 21.2 37% 43 30.07 0.0
10 01:35 N 7 10.00 Fair CLR 42.8 21.2 42% 39 30.06 0.0
10 01:15 N 8 10.00 Fair CLR 44.6 21.2 39% 41 30.05 0.0
10 00:55 N 8 10.00 Fair CLR 42.8 21.2 42% 39 30.05 0.0
10 00:35 N 9 10.00 Fair CLR 44.6 21.2 39% 40 30.05 0.0
10 00:15 N 9 10.00 Fair CLR 42.8 23 46% 38 30.04 0.0
09 23:55 N 8 10.00 Fair CLR 44.6 23 43% 41 30.04 0.0
09 23:35 N 9 10.00 Fair CLR 46.4 23 40% 42 30.03 0.0
09 23:15 N 9 10.00 Fair CLR 46.4 23 40% 42 30.03 0.0
09 22:55 N 10 10.00 Fair CLR 44.6 21.2 39% 40 30.03 0.0
09 22:35 N 10 10.00 Fair CLR 46.4 21.2 37% 42 30.02 0.0
09 22:15 N 9 10.00 Fair CLR 48.2 23 37% 45 30.01 0.0
09 21:55 N 8 10.00 Fair CLR 50 23 35% 47 30 0.0
09 21:35 N 9 10.00 Fair CLR 51.8 23 32% 29.99 0.0
09 21:15 N 10 10.00 Fair CLR 51.8 23 32% 29.98 0.0
09 20:55 N 13 10.00 Fair CLR 53.6 23 30% 29.97 0.0
09 20:35 N 13 10.00 Fair CLR 55.4 23 28% 29.95 0.0
09 20:15 N 15 10.00 Fair CLR 57.2 23 27% 29.95 0.0
09 19:55 N 15 10.00 Fair CLR 59 23 25% 29.94 0.0
09 19:35 N 14 G 22 10.00 Fair CLR 60.8 23 23% 29.93 0.0
09 19:15 N 17 10.00 Fair CLR 60.8 23 23% 29.92 0.0
09 18:55 N 18 10.00 Fair CLR 62.6 23 22% 29.91 0.0
09 18:35 N 20 10.00 Fair CLR 62.6 24.8 24% 29.91 0.0
09 18:15 N 16 G 25 10.00 Fair CLR 62.6 24.8 24% 29.9 0.0
09 17:55 N 17 G 29 10.00 Fair CLR 64.4 24.8 22% 29.89 0.0
09 17:35 N 21 G 28 10.00 Fair and Breezy CLR 64.4 24.8 22% 29.88 0.0
09 17:15 N 17 G 24 10.00 Fair CLR 64.4 26.6 24% 29.88 0.0
09 16:55 N 15 G 26 10.00 Fair CLR 64.4 26.6 24% 29.87 0.0
09 16:35 N 16 G 23 10.00 Fair CLR 66.2 26.6 22% 29.86 0.0
09 16:15 NW 20 G 28 10.00 Fair CLR 66.2 26.6 22% 29.86 0.0
09 15:55 N 21 10.00 Fair and Breezy CLR 66.2 28.4 24% 29.85 0.0
09 15:35 N 20 10.00 Fair CLR 66.2 26.6 22% 29.85 0.0
09 15:15 N 16 G 25 10.00 Fair CLR 64.4 28.4 26% 29.85 0.0
09 14:55 N 20 G 29 10.00 Fair CLR 66.2 28.4 24% 29.85 0.0
09 14:35 N 14 G 26 10.00 Fair CLR 66.2 28.4 24% 29.84 0.0
09 14:15 N 16 G 26 10.00 Fair CLR 64.4 30.2 28% 29.84 0.0
09 13:55 N 17 G 28 10.00 Fair CLR 66.2 33.8 30% 29.83 0.0
09 13:35 N 18 G 25 10.00 Fair CLR 64.4 35.6 34% 29.83 0.0
09 13:15 N 18 G 28 10.00 Fair CLR 64.4 37.4 37% 29.82 0.0
09 12:55 N 20 G 26 10.00 Fair CLR 64.4 39.2 40% 29.83 0.0
09 12:35 N 14 G 23 10.00 Fair CLR 62.6 42.8 49% 29.83 0.0
09 12:15 N 12 G 23 10.00 A Few Clouds FEW110 59 42.8 55% 29.84 0.0
09 11:55 N 17 G 23 10.00 A Few Clouds FEW090 FEW110 60.8 41 48% 29.83 0.0
09 11:35 N 16 10.00 Partly Cloudy SCT095 59 42.8 55% 29.82 0.0
09 11:15 N 17 10.00 Fair CLR 59 41 51% 29.8 0.0
09 10:55 N 13 G 20 10.00 A Few Clouds FEW100 60.8 41 48% 29.8 0.0
09 10:35 N 14 G 20 10.00 Fair CLR 60.8 41 48% 29.79 0.0
09 10:15 N 14 G 25 10.00 Fair CLR 60.8 39.2 45% 29.79 0.0
09 09:55 NW 7 10.00 Fair CLR 60.8 39.2 45% 29.79 0.0
09 09:35 Calm 10.00 Fair CLR 59 39.2 48% 29.78 0.0
09 09:15 N 5 10.00 Fair CLR 57.2 39.2 51% 29.77 0.0
09 08:55 N 9 10.00 Fair CLR 57.2 37.4 48% 29.78 0.0
09 08:35 N 10 10.00 Fair CLR 55.4 35.6 47% 29.78 0.0
09 08:15 N 12 10.00 Fair CLR 55.4 32 41% 29.78 0.0
09 07:55 NW 14 10.00 Fair CLR 55.4 30.2 38% 29.78 0.0
09 07:35 NW 14 G 20 10.00 Fair CLR 55.4 28.4 36% 29.77 0.0
09 07:15 NW 17 G 30 10.00 Fair CLR 53.6 28.4 38% 29.76 0.0
09 06:55 W 8 10.00 Fair CLR 46.4 30.2 53% 43 29.71 0.0
09 06:35 SW 7 10.00 Fair CLR 44.6 28.4 53% 41 29.7 0.0
09 06:15 SW 8 10.00 Fair CLR 44.6 28.4 53% 41 29.7 0.0
09 05:55 SW 8 10.00 Fair CLR 44.6 28.4 53% 41 29.69 0.0
09 05:35 SW 9 10.00 Fair CLR 44.6 26.6 49% 40 29.69 0.0
09 05:15 SW 8 10.00 Fair CLR 44.6 26.6 49% 41 29.69 0.0
09 04:55 SW 8 10.00 Fair CLR 44.6 26.6 49% 41 29.68 0.0
09 04:35 SW 9 10.00 Fair CLR 46.4 26.6 46% 42 29.69 0.0
09 04:15 SW 9 10.00 Fair CLR 48.2 26.6 43% 45 29.69 0.0
09 03:55 SW 9 10.00 Fair CLR 46.4 26.6 46% 42 29.69 0.0
09 03:35 W 8 10.00 Fair CLR 50 26.6 40% 47 29.69 0.0
09 03:15 W 7 10.00 Fair CLR 48.2 28.4 46% 46 29.7 0.0
09 02:55 W 8 10.00 Fair CLR 50 28.4 43% 47 29.7 0.0
09 02:35 W 8 10.00 Fair CLR 50 28.4 43% 47 29.71 0.0
09 02:15 NW 7 10.00 Fair CLR 53.6 26.6 35% 29.71 0.0
09 01:55 NW 8 10.00 Fair CLR 50 28.4 43% 47 29.72 0.0
09 01:35 W 9 10.00 Fair CLR 50 28.4 43% 47 29.72 0.0
09 01:15 NW 8 10.00 Fair CLR 53.6 28.4 38% 29.73 0.0
09 00:55 NW 7 10.00 Partly Cloudy SCT055 55.4 26.6 33% 29.73 0.0
09 00:35 NW 7 10.00 Partly Cloudy SCT055 SCT065 55.4 26.6 33% 29.73 0.0
09 00:15 NW 7 10.00 A Few Clouds FEW055 FEW065 57.2 26.6 31% 29.73 0.0
08 23:55 NW 9 10.00 A Few Clouds FEW050 55.4 26.6 33% 29.73 0.0
08 23:35 N 9 10.00 A Few Clouds FEW050 55.4 28.4 36% 29.73 0.0
08 23:15 N 9 10.00 Fair CLR 55.4 30.2 38% 29.73 0.0
08 22:55 N 8 10.00 A Few Clouds FEW050 57.2 32 39% 29.73 0.0
08 22:35 N 10 10.00 Fair CLR 59 32 36% 29.72 0.0
08 22:15 N 13 10.00 Fair CLR 59 32 36% 29.71 0.0
08 21:55 N 8 10.00 Fair CLR 62.6 30.2 30% 29.69 0.0
08 21:35 N 7 10.00 A Few Clouds FEW110 62.6 32 32% 29.68 0.0
08 21:15 NW 8 10.00 Partly Cloudy SCT110 64.4 32 30% 29.68 0.0
08 20:55 NW 10 10.00 Partly Cloudy SCT110 66.2 30.2 26% 29.67 0.0
08 20:35 NW 12 G 18 10.00 Partly Cloudy SCT120 68 28.4 23% 29.66 0.0
08 20:15 NW 9 G 16 10.00 Fair CLR 68 26.6 21% 29.65 0.0
08 19:55 NW 13 G 21 10.00 Fair CLR 71.6 26.6 19% 29.65 0.0
08 19:35 NW 18 G 24 10.00 Fair CLR 71.6 24.8 17% 29.65 0.0
08 19:15 NW 15 G 22 10.00 Fair CLR 73.4 24.8 16% 29.65 0.0
08 18:55 NW 22 10.00 Fair and Breezy CLR 75.2 24.8 15% 75 29.65 0.0
08 18:35 NW 23 G 30 10.00 Fair and Breezy CLR 75.2 26.6 16% 76 29.65 0.0
08 17:55 W 23 G 30 10.00 Fair and Breezy CLR 77 26.6 15% 77 29.65 0.0
08 17:35 NW 20 10.00 Fair CLR 77 28.4 17% 77 29.65 0.0
08 17:15 W 23 10.00 A Few Clouds and Breezy FEW100 75.2 26.6 16% 76 29.65 0.0
08 16:55 W 16 G 29 10.00 Fair CLR 75.2 28.4 18% 76 29.65 0.0
08 16:35 W 12 G 24 10.00 A Few Clouds FEW100 75.2 28.4 18% 76 29.66 0.0
08 16:15 W 21 G 28 10.00 A Few Clouds and Breezy FEW100 77 28.4 17% 77 29.67 0.0
08 15:55 W 18 G 30 10.00 A Few Clouds FEW100 77 28.4 17% 77 29.68 0.0
08 15:35 W 22 10.00 Partly Cloudy and Breezy SCT100 SCT120 75.2 28.4 18% 76 29.69 0.0
08 15:15 W 18 G 26 10.00 A Few Clouds FEW100 75.2 28.4 18% 76 29.7 0.0
08 14:35 SW 13 G 32 10.00 A Few Clouds FEW100 73.4 26.6 17% 29.72 0.0
08 14:15 SW 15 G 24 10.00 A Few Clouds FEW100 73.4 26.6 17% 29.72 0.0
08 13:55 W 15 G 23 10.00 Partly Cloudy SCT100 73.4 24.8 16% 29.73 0.0
08 13:35 Vrbl 6 G 18 10.00 Fair CLR 73.4 24.8 16% 29.74 0.0
08 13:15 Vrbl 7 G 17 10.00 Fair CLR 71.6 23 16% 29.74 0.0
08 12:35 NW 12 G 17 10.00 Fair CLR 69.8 23 17% 29.76 0.0
08 12:15 NW 13 G 21 10.00 Fair CLR 69.8 23 17% 29.77 0.0
08 11:55 W 8 G 16 10.00 Fair CLR 69.8 21.2 16% 29.78 0.0
08 11:35 Vrbl 7 G 18 10.00 Fair CLR 68 21.2 17% 29.78 0.0
08 11:15 N 7 G 15 10.00 Fair CLR 68 21.2 17% 29.78 0.0
08 10:55 W 12 9.00 Fair CLR 68 21.2 17% 29.79 0.0
08 10:35 W 10 G 17 10.00 Fair CLR 66.2 21.2 18% 29.79 0.0
08 10:15 W 14 10.00 Fair CLR 66.2 21.2 18% 29.8 0.0
08 09:55 W 14 10.00 Fair CLR 64.4 24.8 22% 29.8 0.0
08 09:35 W 10 10.00 Fair CLR 64.4 23 21% 29.8 0.0
08 09:15 W 10 10.00 Fair CLR 62.6 24.8 24% 29.8 0.0
08 08:35 SW 9 10.00 Fair CLR 59 24.8 27% 29.81 0.0
08 08:15 W 8 10.00 Fair CLR 57.2 24.8 29% 29.81 0.0
08 07:55 SW 6 9.00 Fair CLR 51.8 24.8 35% 29.81 0.0
08 07:35 SW 7 10.00 Fair CLR 51.8 24.8 35% 29.82 0.0
08 07:15 SW 6 10.00 Fair CLR 50 24.8 37% 48 29.81 0.0
08 06:55 SW 6 10.00 Fair CLR 50 23 35% 48 29.8 0.0
08 06:35 S 6 10.00 Partly Cloudy SCT120 46.4 21.2 37% 44 29.8 0.0
08 06:15 S 5 10.00 Mostly Cloudy BKN120 42.8 21.2 42% 41 29.8 0.0
08 05:55 S 5 10.00 A Few Clouds FEW110 48.2 21.2 34% 47 29.8 0.0
08 05:35 S 6 10.00 Partly Cloudy SCT120 48.2 19.4 32% 46 29.8 0.0
08 05:15 S 6 10.00 A Few Clouds FEW120 48.2 19.4 32% 46 29.81 0.0
08 04:55 SW 7 10.00 Fair CLR 48.2 19.4 32% 46 29.81 0.0
08 04:35 SW 6 10.00 Fair CLR 48.2 19.4 32% 46 29.81 0.0
08 04:15 S 7 10.00 Fair CLR 48.2 19.4 32% 46 29.81 0.0
08 03:55 S 5 10.00 Fair CLR 44.6 19.4 37% 43 29.81 0.0
08 03:35 S 5 10.00 Fair CLR 48.2 17.6 29% 47 29.82 0.0
08 03:15 Calm 10.00 Fair CLR 48.2 19.4 32% 29.82 0.0
08 02:55 S 5 10.00 Fair CLR 48.2 19.4 32% 47 29.82 0.0
08 02:35 S 5 10.00 A Few Clouds FEW035 46.4 19.4 34% 45 29.82 0.0
08 02:15 S 7 10.00 A Few Clouds FEW033 FEW039 51.8 17.6 26% 29.83 0.0
08 01:55 S 8 10.00 A Few Clouds FEW039 51.8 17.6 26% 29.83 0.0
08 01:35 S 7 10.00 Fair CLR 50 19.4 30% 48 29.83 0.0
08 01:15 S 7 10.00 Fair CLR 50 19.4 30% 48 29.83 0.0
08 00:55 SE 5 10.00 A Few Clouds FEW043 50 19.4 30% 49 29.83 0.0
08 00:35 SE 3 10.00 Fair CLR 51.8 21.2 30% 29.83 0.0
08 00:15 E 3 10.00 Fair CLR 51.8 21.2 30% 29.83 0.0
07 23:55 SE 3 10.00 Fair CLR 51.8 24.8 35% 29.83 0.0
07 23:35 Calm 10.00 Fair CLR 53.6 23 30% 29.84 0.0
07 23:15 Calm 10.00 Fair CLR 53.6 26.6 35% 29.84 0.0
07 22:55 Calm 10.00 Fair CLR 53.6 21.2 28% 29.84 0.0
07 22:35 Calm 10.00 Fair CLR 53.6 17.6 24% 29.84 0.0
07 22:15 NE 3 10.00 Fair CLR 55.4 17.6 23% 29.84 0.0
07 21:55 NE 3 10.00 Fair CLR 57.2 17.6 21% 29.84 0.0
07 21:35 N 5 10.00 Fair CLR 55.4 17.6 23% 29.84 0.0
07 21:15 N 5 10.00 Fair CLR 57.2 17.6 21% 29.83 0.0
07 20:55 N 6 10.00 Fair CLR 57.2 17.6 21% 29.83 0.0
07 20:35 NW 7 10.00 Fair CLR 57.2 17.6 21% 29.82 0.0
07 20:15 NW 7 10.00 Fair CLR 59 17.6 20% 29.82 0.0
07 19:55 NW 6 10.00 Fair CLR 60.8 17.6 19% 29.81 0.0
07 19:35 NW 9 10.00 Fair CLR 62.6 17.6 17% 29.8 0.0
07 19:15 NW 8 G 17 10.00 Fair CLR 62.6 17.6 17% 29.8 0.0
07 18:55 NW 9 10.00 Fair CLR 64.4 17.6 16% 29.8 0.0
07 18:35 W 9 10.00 Fair CLR 64.4 17.6 16% 29.8 0.0
07 18:15 W 12 10.00 Fair CLR 64.4 19.4 18% 29.81 0.0
07 17:55 W 10 G 17 10.00 Fair CLR 64.4 19.4 18% 29.81 0.0
07 17:35 W 9 G 15 10.00 Fair CLR 64.4 19.4 18% 29.81 0.0
07 17:15 NW 9 G 18 10.00 Fair CLR 64.4 19.4 18% 29.81 0.0
07 16:55 NE 6 G 18 10.00 Fair CLR 64.4 19.4 18% 29.81 0.0
07 16:35 NW 13 10.00 Fair CLR 64.4 19.4 18% 29.81 0.0
07 16:15 Vrbl 5 G 15 10.00 Fair CLR 64.4 19.4 18% 29.81 0.0
07 15:55 NE 9 10.00 Fair CLR 64.4 21.2 19% 29.82 0.0
07 15:35 N 14 10.00 Fair CLR 62.6 21.2 20% 29.82 0.0
07 15:15 Vrbl 7 G 14 10.00 Fair CLR 64.4 19.4 18% 29.83 0.0
07 14:55 NW 12 G 20 10.00 Fair CLR 64.4 19.4 18% 29.83 0.0
07 14:35 Vrbl 3 G 16 10.00 Fair CLR 62.6 21.2 20% 29.84 0.0
07 14:15 E 9 G 16 10.00 Fair CLR 60.8 21.2 22% 29.84 0.0
07 13:55 NE 8 G 16 10.00 Fair CLR 62.6 21.2 20% 29.84 0.0
07 13:35 NE 14 10.00 A Few Clouds FEW090 62.6 21.2 20% 29.84 0.0
07 13:15 N 6 G 13 10.00 Fair CLR 60.8 21.2 22% 29.85 0.0
07 12:55 NE 9 G 17 10.00 Fair CLR 60.8 23 23% 29.85 0.0
07 12:35 N 6 G 14 10.00 Fair CLR 60.8 23 23% 29.86 0.0
07 12:15 NE 9 10.00 Fair CLR 59 23 25% 29.86 0.0
07 11:55 Calm 10.00 Fair CLR 57.2 24.8 29% 29.87 0.0
07 11:35 Vrbl 6 10.00 Fair CLR 57.2 26.6 31% 29.87 0.0
07 11:15 NE 7 10.00 Fair CLR 57.2 28.4 33% 29.87 0.0
Date Time (cdt) Wind (mph) Vis. (mi.) Weather Sky Cond. Air Dwpt Max. Min. Relative Humidity Wind Chill (°F) Heat Index (°F) altimeter (in) sea level (mb) 1 hr 3 hr 6 hr
6 hour
Temperature (ºF) Pressure Precipitation (in)